Time;durP1;ratioP1;P1;durP2;ratioP2;P2;SDS_P1;SDS_P2;PMS_P1;PMS_P2;Temp;Humidity;BMP_temperature;BMP_pressure;BME280_temperature;BME280_humidity;BME280_pressure;Samples;Min_cycle;Max_cycle;Signal;HPM_P1;HPM_P2
2021/07/25 00:00:37;;;;;;;3.13;2.78;;;22.40;69.80;;;;;;5098001;28;20376;-72
2021/07/25 00:03:04;;;;;;;3.75;3.22;;;22.40;69.80;;;;;;5098198;28;20040;-73
2021/07/25 00:05:30;;;;;;;4.32;3.38;;;22.40;69.80;;;;;;5098034;28;20127;-73
2021/07/25 00:07:56;;;;;;;4.18;3.45;;;22.30;69.80;;;;;;5098739;28;20363;-73
2021/07/25 00:10:22;;;;;;;3.97;3.25;;;22.30;69.80;;;;;;5098288;28;20066;-73
2021/07/25 00:12:47;;;;;;;4.72;3.63;;;22.30;69.80;;;;;;5098202;28;20059;-73
2021/07/25 00:15:13;;;;;;;4.45;2.97;;;22.30;69.80;;;;;;5097749;28;20415;-72
2021/07/25 00:17:39;;;;;;;3.70;3.13;;;22.40;69.90;;;;;;5097951;28;20122;-72
2021/07/25 00:20:07;;;;;;;3.97;3.33;;;22.30;69.90;;;;;;5097578;28;20066;-72
2021/07/25 00:22:33;;;;;;;4.45;3.15;;;22.30;70.40;;;;;;5092453;28;20052;-72
2021/07/25 00:25:08;;;;;;;3.90;3.42;;;22.30;69.90;;;;;;5098175;28;20176;-72
2021/07/25 00:27:41;;;;;;;3.25;2.95;;;22.30;69.90;;;;;;5098146;28;20097;-72
2021/07/25 00:30:11;;;;;;;3.28;2.95;;;22.30;70.00;;;;;;5097713;28;20043;-72
2021/07/25 00:32:41;;;;;;;3.28;2.97;;;22.30;69.90;;;;;;5097125;28;20048;-72
2021/07/25 00:35:07;;;;;;;4.05;3.40;;;22.30;70.00;;;;;;5097378;28;20040;-72
2021/07/25 00:37:33;;;;;;;3.38;3.08;;;22.30;70.00;;;;;;5097332;28;20048;-72
2021/07/25 00:39:59;;;;;;;4.13;3.20;;;22.30;70.00;;;;;;5097220;28;20052;-72
2021/07/25 00:42:25;;;;;;;3.10;2.80;;;22.30;70.00;;;;;;5097128;28;20032;-72
2021/07/25 00:44:51;;;;;;;3.92;3.50;;;22.30;70.00;;;;;;5097236;28;20046;-72
2021/07/25 00:47:17;;;;;;;3.83;3.42;;;22.30;70.00;;;;;;5097200;28;20055;-72
2021/07/25 00:49:43;;;;;;;4.43;3.65;;;22.30;70.00;;;;;;5097199;28;20358;-72
2021/07/25 00:52:10;;;;;;;3.78;3.00;;;22.30;70.00;;;;;;5096866;28;20116;-72
2021/07/25 00:54:36;;;;;;;3.60;3.30;;;22.30;70.00;;;;;;5097059;28;20409;-72
2021/07/25 00:57:02;;;;;;;3.97;3.25;;;22.30;70.00;;;;;;5097338;28;20039;-73
2021/07/25 00:59:28;;;;;;;3.47;3.17;;;22.30;70.00;;;;;;5097026;28;20047;-73
2021/07/25 01:01:54;;;;;;;3.85;3.42;;;22.30;70.00;;;;;;5096594;28;20052;-73
2021/07/25 01:04:52;;;;;;;3.70;3.40;;;22.30;70.00;;;;;;5096794;28;20073;-73
2021/07/25 01:07:21;;;;;;;3.42;3.13;;;22.30;70.00;;;;;;5096840;28;20044;-72
2021/07/25 01:10:18;;;;;;;3.53;3.22;;;22.30;70.00;;;;;;5096463;28;20048;-72
2021/07/25 01:12:56;;;;;;;4.93;3.10;;;22.30;70.00;;;;;;5096908;28;20044;-72
2021/07/25 01:15:24;;;;;;;3.47;3.17;;;22.30;70.10;;;;;;5096687;28;20128;-72
2021/07/25 01:17:54;;;;;;;3.88;3.00;;;22.30;70.30;;;;;;5097190;28;20123;-72
2021/07/25 01:20:20;;;;;;;3.72;3.00;;;22.30;70.10;;;;;;5096552;28;20036;-72
2021/07/25 01:22:48;;;;;;;4.25;3.10;;;22.30;70.10;;;;;;5096986;28;20040;-72
2021/07/25 01:25:16;;;;;;;3.72;3.05;;;22.30;70.10;;;;;;5097079;28;20040;-72
2021/07/25 01:27:54;;;;;;;3.47;3.17;;;22.30;70.10;;;;;;5096286;28;20119;-72
2021/07/25 01:30:22;;;;;;;3.20;2.90;;;22.30;70.00;;;;;;5096621;28;20439;-72
2021/07/25 01:32:51;;;;;;;3.83;2.95;;;22.30;70.10;;;;;;5096434;28;20401;-72
2021/07/25 01:35:17;;;;;;;3.13;2.83;;;22.30;70.10;;;;;;5096263;28;20040;-72
2021/07/25 01:37:44;;;;;;;3.60;3.00;;;22.30;70.10;;;;;;5096649;28;20048;-72
2021/07/25 01:40:15;;;;;;;3.38;3.08;;;22.30;70.10;;;;;;5096744;28;20044;-72
2021/07/25 01:42:42;;;;;;;4.00;3.45;;;22.30;70.10;;;;;;5096423;28;20050;-72
2021/07/25 01:45:08;;;;;;;3.85;3.03;;;22.30;70.10;;;;;;5095540;28;20083;-72
2021/07/25 01:47:35;;;;;;;4.28;3.05;;;22.30;70.20;;;;;;5095775;28;20040;-73
2021/07/25 01:50:01;;;;;;;4.07;3.13;;;22.30;70.20;;;;;;5095665;28;20435;-72
2021/07/25 01:52:27;;;;;;;4.18;3.30;;;22.30;70.20;;;;;;5096219;28;20176;-73
2021/07/25 01:54:53;;;;;;;3.72;2.90;;;22.30;70.20;;;;;;5095805;28;20028;-72
2021/07/25 01:57:19;;;;;;;3.55;3.20;;;22.20;70.20;;;;;;5095673;28;20048;-73
2021/07/25 01:59:45;;;;;;;3.65;3.13;;;22.20;70.20;;;;;;5095814;28;20040;-72
2021/07/25 02:02:11;;;;;;;3.47;3.13;;;22.30;70.20;;;;;;5095235;28;20052;-72
2021/07/25 02:04:36;;;;;;;3.80;3.28;;;22.30;70.30;;;;;;5095455;28;20454;-73
2021/07/25 02:07:04;;;;;;;4.78;3.30;;;22.20;70.20;;;;;;5095816;28;20093;-72
2021/07/25 02:09:36;;;;;;;3.60;3.30;;;22.20;70.20;;;;;;5096330;28;20043;-72
2021/07/25 02:12:07;;;;;;;3.78;3.35;;;22.20;70.20;;;;;;5095615;28;20479;-73
2021/07/25 02:14:34;;;;;;;3.85;3.47;;;22.30;70.20;;;;;;5095591;28;20104;-72
2021/07/25 02:17:01;;;;;;;4.28;3.55;;;22.20;70.20;;;;;;5095380;28;20051;-72
2021/07/25 02:19:27;;;;;;;3.13;2.83;;;22.20;70.10;;;;;;5095546;28;20040;-72
2021/07/25 02:21:54;;;;;;;3.70;2.90;;;22.30;70.20;;;;;;5095913;28;20056;-73
2021/07/25 02:24:20;;;;;;;4.72;3.22;;;22.20;70.20;;;;;;5095616;28;20040;-73
2021/07/25 02:26:46;;;;;;;3.70;3.30;;;22.20;70.20;;;;;;5095156;28;20051;-72
2021/07/25 02:29:12;;;;;;;3.47;3.17;;;22.20;70.20;;;;;;5095403;28;20035;-73
2021/07/25 02:31:38;;;;;;;4.20;3.15;;;22.20;70.20;;;;;;5095013;28;20519;-73
2021/07/25 02:34:04;;;;;;;3.35;3.05;;;22.20;70.20;;;;;;5095655;28;20051;-73
2021/07/25 02:36:30;;;;;;;4.30;3.58;;;22.20;70.30;;;;;;5094988;28;20386;-73
2021/07/25 02:38:56;;;;;;;3.75;3.40;;;22.20;70.30;;;;;;5095131;28;20059;-73
2021/07/25 02:41:22;;;;;;;4.38;3.90;;;22.20;70.40;;;;;;5095387;28;20115;-73
2021/07/25 02:43:47;;;;;;;5.30;3.65;;;22.20;70.40;;;;;;5095281;28;20335;-73
2021/07/25 02:46:13;;;;;;;4.22;3.17;;;22.20;70.30;;;;;;5095041;28;20366;-73
2021/07/25 02:48:39;;;;;;;4.35;3.53;;;22.20;70.30;;;;;;5095472;28;20055;-73
2021/07/25 02:51:05;;;;;;;3.53;2.97;;;22.20;70.30;;;;;;5095040;28;20366;-73
2021/07/25 02:53:31;;;;;;;5.60;3.63;;;22.20;70.30;;;;;;5095074;28;20044;-73
2021/07/25 02:55:57;;;;;;;4.40;3.85;;;22.20;70.40;;;;;;5096489;28;20044;-73
2021/07/25 02:58:23;;;;;;;4.95;3.53;;;22.20;70.40;;;;;;5099317;28;20083;-73
2021/07/25 03:00:49;;;;;;;4.10;3.60;;;22.20;70.30;;;;;;5099126;28;20417;-73
2021/07/25 03:03:15;;;;;;;4.45;3.58;;;22.20;70.30;;;;;;5099029;28;20376;-73
2021/07/25 03:05:41;;;;;;;4.75;3.38;;;22.20;70.30;;;;;;5099099;28;20036;-72
2021/07/25 03:08:07;;;;;;;5.50;3.83;;;22.20;70.30;;;;;;5099467;28;20051;-73
2021/07/25 03:10:33;;;;;;;4.57;3.58;;;22.20;70.50;;;;;;5099667;28;20044;-73
2021/07/25 03:12:59;;;;;;;4.40;3.88;;;22.20;70.20;;;;;;5098981;28;20150;-73
2021/07/25 03:15:24;;;;;;;5.43;3.97;;;22.20;70.30;;;;;;5098466;28;20036;-73
2021/07/25 03:17:52;;;;;;;4.38;3.78;;;22.20;70.30;;;;;;5099368;28;20105;-73
2021/07/25 03:20:18;;;;;;;4.32;3.60;;;22.20;70.30;;;;;;5098979;28;20039;-73
2021/07/25 03:22:44;;;;;;;5.43;4.07;;;22.20;70.20;;;;;;5098780;28;20040;-73
2021/07/25 03:25:11;;;;;;;4.60;3.70;;;22.20;70.30;;;;;;5099049;28;20040;-73
2021/07/25 03:27:37;;;;;;;5.22;3.90;;;22.20;70.30;;;;;;5098925;28;20111;-73
2021/07/25 03:30:04;;;;;;;4.03;3.63;;;22.20;70.20;;;;;;5098616;28;20119;-73
2021/07/25 03:32:30;;;;;;;5.25;3.85;;;22.20;70.20;;;;;;5099089;28;20046;-73
2021/07/25 03:34:56;;;;;;;4.72;3.63;;;22.20;70.20;;;;;;5098755;28;20036;-73
2021/07/25 03:37:22;;;;;;;5.13;3.92;;;22.20;70.20;;;;;;5098864;28;20048;-73
2021/07/25 03:39:52;;;;;;;5.18;3.90;;;22.20;70.20;;;;;;5098314;28;20044;-73
2021/07/25 03:42:17;;;;;;;5.25;4.30;;;22.20;70.30;;;;;;5098467;28;20118;-73
2021/07/25 03:44:43;;;;;;;4.90;4.28;;;22.20;70.30;;;;;;5098605;28;20048;-73
2021/07/25 03:47:10;;;;;;;6.07;4.18;;;22.20;70.40;;;;;;5081046;28;20116;-73
2021/07/25 03:49:39;;;;;;;5.30;4.25;;;22.20;70.30;;;;;;5098476;28;20044;-73
2021/07/25 03:52:05;;;;;;;4.80;4.05;;;22.20;70.40;;;;;;5098307;28;20412;-72
2021/07/25 03:54:33;;;;;;;5.22;4.03;;;22.20;70.40;;;;;;5098729;28;20044;-73
2021/07/25 03:57:05;;;;;;;4.13;3.72;;;22.20;70.30;;;;;;5097700;28;20043;-73
2021/07/25 03:59:31;;;;;;;4.63;4.22;;;22.20;70.40;;;;;;5098368;28;20071;-72
2021/07/25 04:01:57;;;;;;;5.70;4.22;;;22.10;70.30;;;;;;5098159;28;20036;-73
2021/07/25 04:04:23;;;;;;;4.78;3.95;;;22.10;70.30;;;;;;5098641;28;20075;-73
2021/07/25 04:06:49;;;;;;;5.55;4.22;;;22.10;70.40;;;;;;5097530;28;20363;-73
2021/07/25 04:09:15;;;;;;;4.88;4.20;;;22.10;70.40;;;;;;5097485;28;20111;-73
2021/07/25 04:11:41;;;;;;;5.93;4.35;;;22.10;70.30;;;;;;5098443;28;20040;-73
2021/07/25 04:14:07;;;;;;;5.45;4.45;;;22.10;70.30;;;;;;5098359;28;20040;-73
2021/07/25 04:16:33;;;;;;;6.18;4.22;;;22.10;70.40;;;;;;5097604;28;20102;-72
2021/07/25 04:18:59;;;;;;;4.57;3.90;;;22.20;70.40;;;;;;5097881;28;20124;-73
2021/07/25 04:21:26;;;;;;;7.05;4.53;;;22.10;70.40;;;;;;5097708;28;20036;-73
2021/07/25 04:23:51;;;;;;;5.40;4.22;;;22.10;70.40;;;;;;5098264;28;20076;-72
2021/07/25 04:26:18;;;;;;;4.22;3.83;;;22.10;70.40;;;;;;5098051;28;20063;-72
2021/07/25 04:28:44;;;;;;;4.10;3.70;;;22.10;70.30;;;;;;5097243;28;20447;-72
2021/07/25 04:31:10;;;;;;;4.65;3.97;;;22.10;70.30;;;;;;5097375;28;20032;-72
2021/07/25 04:33:37;;;;;;;5.03;4.15;;;22.10;70.40;;;;;;5097303;28;20470;-72
2021/07/25 04:36:11;;;;;;;4.45;3.97;;;22.10;70.40;;;;;;5097518;28;20133;-73
2021/07/25 04:38:38;;;;;;;4.50;3.93;;;22.10;70.30;;;;;;5097417;28;20066;-73
2021/07/25 04:41:12;;;;;;;3.67;3.05;;;22.10;70.90;;;;;;5097257;28;20397;-72
2021/07/25 04:43:38;;;;;;;4.68;3.90;;;22.10;70.40;;;;;;5097321;28;20040;-72
2021/07/25 04:46:20;;;;;;;4.70;4.22;;;22.10;70.40;;;;;;5097772;28;20082;-72
2021/07/25 04:48:56;;;;;;;6.22;4.32;;;22.10;70.40;;;;;;5096992;28;20067;-72
2021/07/25 04:51:23;;;;;;;4.90;3.95;;;22.10;70.40;;;;;;5096844;28;20040;-73
2021/07/25 04:53:51;;;;;;;6.40;4.55;;;22.10;70.40;;;;;;5097316;28;20138;-72
2021/07/25 04:56:19;;;;;;;6.05;4.47;;;22.10;70.40;;;;;;5097409;28;20048;-73
2021/07/25 04:58:54;;;;;;;4.65;4.00;;;22.10;70.40;;;;;;5097489;28;20055;-72
2021/07/25 05:01:26;;;;;;;5.22;3.85;;;22.10;70.40;;;;;;5096889;28;20044;-73
2021/07/25 05:03:52;;;;;;;5.97;4.32;;;22.10;70.40;;;;;;5096615;28;20093;-73
2021/07/25 05:06:18;;;;;;;4.70;4.00;;;22.10;70.40;;;;;;5096731;28;20067;-73
2021/07/25 05:08:44;;;;;;;4.63;3.80;;;22.10;70.40;;;;;;5097187;28;20086;-72
2021/07/25 05:11:26;;;;;;;4.65;3.70;;;22.10;70.40;;;;;;5096738;28;20111;-72
2021/07/25 05:13:58;;;;;;;5.45;3.72;;;22.10;70.40;;;;;;5096419;28;20510;-72
2021/07/25 05:16:29;;;;;;;4.82;3.70;;;22.10;70.40;;;;;;5096624;28;20067;-72
2021/07/25 05:19:10;;;;;;;4.85;4.03;;;22.10;70.50;;;;;;5095931;28;20039;-72
2021/07/25 05:21:42;;;;;;;4.25;3.85;;;22.10;70.50;;;;;;5096628;28;20075;-72
2021/07/25 05:24:09;;;;;;;5.88;4.38;;;22.10;70.50;;;;;;5096469;28;20040;-72
2021/07/25 05:26:36;;;;;;;4.97;4.00;;;22.10;70.50;;;;;;5096476;28;20040;-73
2021/07/25 05:29:03;;;;;;;4.45;4.00;;;22.10;70.50;;;;;;5096305;28;20052;-72
2021/07/25 05:31:33;;;;;;;4.88;4.05;;;22.10;70.50;;;;;;5096436;28;20340;-73
2021/07/25 05:34:02;;;;;;;4.85;3.83;;;22.10;70.50;;;;;;5096082;28;20055;-72
2021/07/25 05:36:29;;;;;;;4.32;3.75;;;22.10;70.50;;;;;;5096347;28;20112;-72
2021/07/25 05:38:55;;;;;;;4.07;3.50;;;22.10;70.50;;;;;;5078414;28;20044;-72
2021/07/25 05:41:21;;;;;;;4.80;4.05;;;22.10;70.50;;;;;;5095977;28;20040;-72
2021/07/25 05:43:47;;;;;;;4.78;3.65;;;22.10;70.50;;;;;;5095901;28;20122;-72
2021/07/25 05:46:13;;;;;;;4.22;3.70;;;22.10;70.60;;;;;;5096415;28;20064;-72
2021/07/25 05:48:39;;;;;;;4.45;3.90;;;22.10;70.60;;;;;;5096089;28;20395;-72
2021/07/25 05:51:05;;;;;;;4.32;3.90;;;22.10;70.60;;;;;;5096496;28;20047;-72
2021/07/25 05:53:31;;;;;;;4.68;4.10;;;22.10;70.60;;;;;;5095837;28;20359;-73
2021/07/25 05:55:57;;;;;;;5.00;3.97;;;22.10;70.60;;;;;;5096521;28;20043;-73
2021/07/25 05:58:23;;;;;;;4.53;3.78;;;22.10;70.60;;;;;;5078608;28;20150;-73
2021/07/25 06:00:49;;;;;;;4.72;3.55;;;22.10;70.60;;;;;;5096245;28;20079;-72
2021/07/25 06:03:15;;;;;;;4.30;3.85;;;22.10;70.60;;;;;;5095706;28;20344;-73
2021/07/25 06:05:41;;;;;;;5.03;3.85;;;22.10;70.50;;;;;;5095578;28;20067;-72
2021/07/25 06:08:12;;;;;;;4.05;3.47;;;22.10;70.60;;;;;;5095800;28;20040;-72
2021/07/25 06:10:43;;;;;;;4.20;3.75;;;22.10;70.60;;;;;;5095633;28;20036;-73
2021/07/25 06:13:09;;;;;;;6.85;3.88;;;22.10;70.60;;;;;;5095403;28;20384;-73
2021/07/25 06:15:36;;;;;;;3.85;3.47;;;22.10;70.60;;;;;;5095660;28;20336;-72
2021/07/25 06:18:06;;;;;;;4.40;4.00;;;22.00;70.60;;;;;;5095350;28;20044;-72
2021/07/25 06:20:32;;;;;;;4.68;4.15;;;22.10;70.60;;;;;;5095582;28;20070;-72
2021/07/25 06:22:59;;;;;;;4.30;3.47;;;22.10;70.70;;;;;;5095452;28;20061;-73
2021/07/25 06:25:28;;;;;;;5.15;3.85;;;22.10;70.60;;;;;;5096462;28;20048;-73
2021/07/25 06:27:56;;;;;;;5.93;4.25;;;22.10;70.60;;;;;;5078054;28;20067;-73
2021/07/25 06:30:23;;;;;;;4.45;3.70;;;22.00;70.60;;;;;;5095059;28;20127;-72
2021/07/25 06:32:53;;;;;;;4.60;3.88;;;22.00;70.50;;;;;;5094977;28;20043;-73
2021/07/25 06:35:19;;;;;;;5.57;3.70;;;22.00;70.50;;;;;;5095850;28;20044;-72
2021/07/25 06:37:45;;;;;;;4.80;3.88;;;22.00;70.50;;;;;;5095164;28;20101;-73
2021/07/25 06:40:12;;;;;;;3.97;3.50;;;22.00;70.50;;;;;;5095177;28;20036;-73
2021/07/25 06:42:38;;;;;;;4.13;3.67;;;22.10;70.60;;;;;;5095400;28;20047;-73
2021/07/25 06:45:04;;;;;;;4.45;3.53;;;22.00;70.50;;;;;;5095006;28;20039;-73
2021/07/25 06:47:30;;;;;;;4.20;3.63;;;22.00;70.50;;;;;;5095695;28;20055;-72
2021/07/25 06:49:56;;;;;;;4.07;3.53;;;22.00;70.50;;;;;;5094908;28;20033;-73
2021/07/25 06:52:21;;;;;;;4.18;3.45;;;22.00;70.60;;;;;;5094989;28;20039;-73
2021/07/25 06:54:47;;;;;;;4.72;3.40;;;22.00;70.50;;;;;;5095038;28;20043;-73
2021/07/25 06:57:13;;;;;;;4.72;3.85;;;22.00;70.50;;;;;;5094834;28;20048;-73
2021/07/25 06:59:39;;;;;;;5.53;3.88;;;22.00;70.50;;;;;;5094868;28;20075;-73
2021/07/25 07:02:05;;;;;;;4.72;4.13;;;22.00;70.60;;;;;;5095068;28;20067;-73
2021/07/25 07:04:31;;;;;;;5.43;4.00;;;22.00;70.50;;;;;;5094908;28;20043;-73
2021/07/25 07:06:57;;;;;;;4.53;3.67;;;22.00;70.60;;;;;;5094694;28;20046;-73
2021/07/25 07:09:23;;;;;;;4.60;3.80;;;22.00;70.60;;;;;;5095029;28;20044;-73
2021/07/25 07:11:48;;;;;;;5.43;3.72;;;22.00;70.60;;;;;;5094746;28;20131;-73
2021/07/25 07:14:14;;;;;;;4.35;3.72;;;22.00;70.60;;;;;;5094659;28;20070;-73
2021/07/25 07:16:40;;;;;;;4.65;3.70;;;22.00;70.60;;;;;;5095104;28;20036;-73
2021/07/25 07:19:06;;;;;;;4.13;3.47;;;22.00;70.60;;;;;;5094593;28;20051;-73
2021/07/25 07:21:32;;;;;;;6.20;4.20;;;22.00;70.60;;;;;;5095336;28;20044;-73
2021/07/25 07:23:58;;;;;;;4.82;3.28;;;22.00;70.60;;;;;;5094857;28;20071;-73
2021/07/25 07:26:23;;;;;;;5.47;3.85;;;22.00;70.60;;;;;;5095118;28;20044;-73
2021/07/25 07:28:50;;;;;;;4.22;3.83;;;22.00;70.60;;;;;;5095057;28;20098;-72
2021/07/25 07:31:16;;;;;;;4.53;3.72;;;22.00;70.60;;;;;;5094714;28;20044;-73
2021/07/25 07:33:42;;;;;;;5.70;4.40;;;22.00;70.70;;;;;;5094689;28;20044;-73
2021/07/25 07:36:07;;;;;;;4.72;3.80;;;22.00;70.60;;;;;;5094591;28;20111;-73
2021/07/25 07:38:33;;;;;;;4.72;4.07;;;22.00;70.70;;;;;;5094471;28;20036;-73
2021/07/25 07:40:59;;;;;;;4.70;3.90;;;22.00;70.70;;;;;;5077028;28;20123;-73
2021/07/25 07:43:25;;;;;;;4.22;3.83;;;22.00;70.70;;;;;;5096477;28;20040;-73
2021/07/25 07:45:52;;;;;;;4.85;3.95;;;22.00;70.70;;;;;;5098583;28;20335;-72
2021/07/25 07:48:19;;;;;;;4.82;3.80;;;22.00;70.70;;;;;;5098415;28;20056;-72
2021/07/25 07:50:45;;;;;;;4.50;3.83;;;22.00;70.70;;;;;;5098044;28;20068;-73
2021/07/25 07:53:12;;;;;;;4.78;4.20;;;22.00;70.60;;;;;;5098516;28;20039;-72
2021/07/25 07:55:38;;;;;;;4.80;4.10;;;22.00;70.70;;;;;;5098113;28;20443;-73
2021/07/25 07:58:04;;;;;;;4.50;3.92;;;22.00;70.70;;;;;;5098178;28;20436;-73
2021/07/25 08:00:30;;;;;;;4.38;3.58;;;22.00;70.70;;;;;;5098115;28;20052;-73
2021/07/25 08:02:56;;;;;;;4.90;4.22;;;22.00;70.80;;;;;;5098643;28;20123;-73
2021/07/25 08:05:22;;;;;;;5.20;3.95;;;22.00;70.80;;;;;;5097924;28;20094;-72
2021/07/25 08:07:49;;;;;;;4.10;3.70;;;22.00;70.80;;;;;;5098396;28;20157;-73
2021/07/25 08:10:14;;;;;;;4.68;4.10;;;22.00;70.80;;;;;;5098030;28;20051;-73
2021/07/25 08:12:41;;;;;;;5.00;3.78;;;22.00;70.70;;;;;;5098205;28;20036;-72
2021/07/25 08:15:08;;;;;;;4.72;3.95;;;22.00;70.80;;;;;;5097917;28;20048;-72
2021/07/25 08:17:35;;;;;;;4.85;4.05;;;22.00;70.80;;;;;;5097824;28;20055;-73
2021/07/25 08:20:01;;;;;;;4.45;4.05;;;22.00;70.80;;;;;;5079866;28;20051;-73
2021/07/25 08:22:26;;;;;;;5.13;3.80;;;22.00;70.80;;;;;;5097781;28;20055;-72
2021/07/25 08:24:52;;;;;;;5.20;3.65;;;22.00;70.80;;;;;;5097534;28;20114;-72
2021/07/25 08:27:18;;;;;;;4.57;4.18;;;22.00;70.80;;;;;;5097923;28;20036;-72
2021/07/25 08:29:44;;;;;;;5.88;4.05;;;22.00;70.80;;;;;;5097338;28;20044;-72
2021/07/25 08:32:10;;;;;;;5.40;4.22;;;22.00;70.80;;;;;;5098048;28;20044;-72
2021/07/25 08:34:37;;;;;;;4.18;3.78;;;22.00;70.80;;;;;;5097486;28;20036;-72
2021/07/25 08:37:03;;;;;;;5.63;4.15;;;22.00;70.80;;;;;;5097249;28;20383;-72
2021/07/25 08:39:29;;;;;;;4.20;3.80;;;22.00;70.80;;;;;;5080181;28;20043;-72
2021/07/25 08:42:00;;;;;;;4.50;4.10;;;22.10;70.90;;;;;;5097505;28;20124;-72
2021/07/25 08:44:35;;;;;;;5.32;3.92;;;22.00;70.90;;;;;;5097010;28;20036;-72
2021/07/25 08:47:02;;;;;;;5.32;4.03;;;22.10;70.90;;;;;;5097131;28;20155;-72
2021/07/25 08:49:48;;;;;;;6.50;4.10;;;22.00;70.90;;;;;;5097736;28;20055;-72
2021/07/25 08:52:17;;;;;;;4.40;3.67;;;22.00;70.90;;;;;;5097414;28;20044;-72
2021/07/25 08:54:43;;;;;;;4.22;3.72;;;22.00;71.00;;;;;;5096773;28;20076;-72
2021/07/25 08:57:13;;;;;;;4.80;3.95;;;22.10;71.10;;;;;;5097391;28;20112;-73
2021/07/25 08:59:42;;;;;;;4.97;4.03;;;22.10;71.10;;;;;;5096976;28;20447;-72
2021/07/25 09:02:23;;;;;;;4.72;3.83;;;22.10;71.10;;;;;;5097156;28;20431;-72
2021/07/25 09:04:50;;;;;;;4.82;4.28;;;22.10;71.10;;;;;;5097208;28;20047;-72
2021/07/25 09:07:18;;;;;;;4.25;3.85;;;22.10;71.10;;;;;;5096913;28;20032;-72
2021/07/25 09:09:45;;;;;;;4.95;3.95;;;22.10;71.10;;;;;;5096437;28;20044;-72
2021/07/25 09:12:12;;;;;;;4.68;3.78;;;22.10;71.10;;;;;;5096736;28;20051;-72
2021/07/25 09:14:49;;;;;;;4.65;4.25;;;22.10;71.20;;;;;;5096587;28;20407;-72
2021/07/25 09:17:15;;;;;;;5.63;4.00;;;22.10;71.20;;;;;;5096724;28;20071;-72
2021/07/25 09:20:09;;;;;;;5.80;4.07;;;22.10;71.20;;;;;;5096558;28;20584;-72
2021/07/25 09:22:39;;;;;;;5.35;4.63;;;22.10;71.10;;;;;;5097048;28;20051;-72
2021/07/25 09:25:06;;;;;;;5.22;3.92;;;22.10;71.20;;;;;;5096707;28;20546;-72
2021/07/25 09:27:31;;;;;;;5.82;4.10;;;22.10;71.20;;;;;;5096506;28;20043;-72
2021/07/25 09:30:14;;;;;;;4.50;4.10;;;22.10;71.20;;;;;;5096003;28;20035;-72
2021/07/25 09:32:40;;;;;;;5.15;4.45;;;22.10;71.10;;;;;;5096243;28;20036;-72
2021/07/25 09:35:26;;;;;;;5.30;4.35;;;22.10;71.10;;;;;;5096217;28;20039;-72
2021/07/25 09:37:56;;;;;;;5.03;3.88;;;22.10;71.00;;;;;;5096290;28;20052;-72
2021/07/25 09:40:27;;;;;;;4.95;4.43;;;22.10;71.10;;;;;;5096069;28;20091;-72
2021/07/25 09:43:24;;;;;;;4.60;4.15;;;22.20;71.10;;;;;;5096166;28;20040;-73
2021/07/25 09:45:56;;;;;;;5.07;4.57;;;22.20;71.00;;;;;;5096232;28;20047;-73
2021/07/25 09:48:24;;;;;;;4.07;3.67;;;22.20;71.00;;;;;;5096709;28;20036;-73
2021/07/25 09:50:52;;;;;;;4.85;4.40;;;22.20;70.90;;;;;;5096069;28;20093;-72
2021/07/25 09:53:18;;;;;;;4.05;3.75;;;22.20;71.00;;;;;;5095776;28;20040;-72
2021/07/25 09:55:44;;;;;;;5.05;4.55;;;22.20;71.00;;;;;;5095689;28;20032;-73
2021/07/25 09:58:11;;;;;;;5.22;4.03;;;22.20;71.10;;;;;;5095517;28;20052;-72
2021/07/25 10:00:41;;;;;;;5.45;4.30;;;22.20;71.10;;;;;;5096160;28;20044;-72
2021/07/25 10:03:32;;;;;;;4.35;3.95;;;22.30;71.20;;;;;;5096128;28;20119;-72
2021/07/25 10:05:58;;;;;;;4.63;4.22;;;22.30;71.10;;;;;;5095185;28;20032;-72
2021/07/25 10:08:24;;;;;;;5.75;4.68;;;22.30;71.10;;;;;;5095688;28;20040;-73
2021/07/25 10:10:52;;;;;;;5.32;4.50;;;22.30;71.70;;;;;;5095645;28;20143;-73
2021/07/25 10:13:20;;;;;;;4.95;4.47;;;22.30;71.10;;;;;;5096417;28;20343;-72
2021/07/25 10:15:58;;;;;;;5.07;4.57;;;22.30;71.10;;;;;;5095499;28;20051;-72
2021/07/25 10:18:25;;;;;;;5.03;4.55;;;22.30;71.00;;;;;;5095761;28;20068;-72
2021/07/25 10:20:55;;;;;;;5.70;4.40;;;22.30;71.10;;;;;;5095396;28;20051;-73
2021/07/25 10:23:44;;;;;;;4.95;4.45;;;22.40;71.10;;;;;;5095729;28;20100;-72
2021/07/25 10:26:12;;;;;;;4.68;4.25;;;22.40;71.10;;;;;;5094611;28;20083;-72
2021/07/25 10:28:40;;;;;;;4.65;4.18;;;22.30;71.10;;;;;;5095903;28;20397;-72
2021/07/25 10:31:08;;;;;;;4.90;3.75;;;22.30;71.10;;;;;;5095217;28;20050;-72
2021/07/25 10:33:38;;;;;;;5.97;4.50;;;22.40;71.10;;;;;;5094912;28;20058;-73
2021/07/25 10:36:04;;;;;;;4.60;4.20;;;22.40;71.10;;;;;;5095750;28;20111;-73
2021/07/25 10:38:30;;;;;;;5.00;4.50;;;22.40;71.10;;;;;;5095691;28;20136;-73
2021/07/25 10:40:58;;;;;;;4.70;4.15;;;22.40;71.10;;;;;;5095261;28;20120;-73
2021/07/25 10:43:25;;;;;;;4.53;4.13;;;22.40;71.10;;;;;;5095242;28;20111;-73
2021/07/25 10:46:13;;;;;;;4.68;4.00;;;22.40;71.00;;;;;;5095368;28;20123;-73
2021/07/25 10:48:59;;;;;;;4.55;4.15;;;22.40;71.00;;;;;;5095194;28;20346;-73
2021/07/25 10:51:26;;;;;;;5.55;4.60;;;22.40;71.00;;;;;;5095383;28;20043;-72
2021/07/25 10:53:51;;;;;;;4.97;4.35;;;22.40;71.00;;;;;;5095138;28;20127;-73
2021/07/25 10:56:56;;;;;;;6.25;4.38;;;22.40;71.00;;;;;;5095054;28;20481;-73
2021/07/25 10:59:48;;;;;;;4.95;4.30;;;22.40;70.90;;;;;;5094877;28;20105;-72
2021/07/25 11:02:33;;;;;;;5.00;4.43;;;22.50;71.00;;;;;;5095084;28;20110;-73
2021/07/25 11:05:01;;;;;;;4.82;4.25;;;22.50;71.00;;;;;;5095532;28;20119;-73
2021/07/25 11:07:32;;;;;;;4.88;4.32;;;22.50;71.00;;;;;;5095713;28;20129;-73
2021/07/25 11:10:07;;;;;;;4.68;4.20;;;22.40;71.00;;;;;;5095267;28;20047;-72
2021/07/25 11:12:47;;;;;;;4.30;3.85;;;22.50;71.00;;;;;;5094791;28;20384;-73
2021/07/25 11:15:34;;;;;;;4.97;4.43;;;22.50;71.00;;;;;;5094844;28;20032;-73
2021/07/25 11:18:05;;;;;;;5.53;4.38;;;22.50;71.00;;;;;;5096672;28;20046;-73
2021/07/25 11:20:57;;;;;;;5.57;4.38;;;22.50;70.90;;;;;;5098949;28;20128;-73
2021/07/25 11:23:23;;;;;;;5.40;4.90;;;22.50;71.00;;;;;;5098589;28;20344;-73
2021/07/25 11:25:53;;;;;;;5.53;4.93;;;22.50;70.90;;;;;;5098375;28;20062;-73
2021/07/25 11:28:39;;;;;;;5.35;4.72;;;22.50;70.90;;;;;;5098888;28;20044;-73
2021/07/25 11:31:06;;;;;;;4.53;4.13;;;22.50;70.90;;;;;;5099033;28;20055;-73
2021/07/25 11:33:40;;;;;;;5.05;4.55;;;22.50;71.00;;;;;;5098833;28;20036;-73
2021/07/25 11:36:27;;;;;;;5.30;4.50;;;22.50;71.00;;;;;;5098321;28;20390;-73
2021/07/25 11:38:59;;;;;;;5.40;4.55;;;22.50;71.00;;;;;;5097991;28;20458;-73
2021/07/25 11:41:27;;;;;;;4.47;3.92;;;22.50;71.00;;;;;;5098420;28;20039;-73
2021/07/25 11:44:12;;;;;;;5.15;4.65;;;22.50;71.00;;;;;;5098469;28;20363;-73
2021/07/25 11:46:45;;;;;;;4.40;4.00;;;22.50;71.00;;;;;;5098821;28;20043;-73
2021/07/25 11:49:20;;;;;;;5.00;4.50;;;22.50;70.90;;;;;;5099020;28;20131;-73
2021/07/25 11:52:02;;;;;;;5.05;4.55;;;22.50;70.90;;;;;;5098244;28;20039;-73
2021/07/25 11:54:35;;;;;;;5.10;4.60;;;22.60;71.00;;;;;;5098506;28;20044;-73
2021/07/25 11:57:02;;;;;;;4.97;4.38;;;22.50;70.90;;;;;;5098857;28;20436;-73
2021/07/25 11:59:30;;;;;;;5.72;4.78;;;22.50;71.00;;;;;;5097946;28;20048;-73
2021/07/25 12:01:56;;;;;;;4.68;4.18;;;22.50;71.00;;;;;;5098793;28;20040;-72
2021/07/25 12:04:26;;;;;;;5.80;4.88;;;22.50;70.90;;;;;;5098201;28;20069;-73
2021/07/25 12:07:06;;;;;;;4.65;4.18;;;22.60;71.00;;;;;;5098587;28;20067;-73
2021/07/25 12:09:33;;;;;;;6.15;4.40;;;22.60;70.90;;;;;;5097512;28;20064;-73
2021/07/25 12:12:12;;;;;;;4.72;4.28;;;22.60;71.00;;;;;;5098132;28;20036;-73
2021/07/25 12:14:42;;;;;;;5.90;4.38;;;22.60;70.90;;;;;;5098277;28;20032;-73
2021/07/25 12:17:09;;;;;;;5.10;4.60;;;22.60;70.90;;;;;;5097735;28;20032;-73
2021/07/25 12:19:42;;;;;;;4.75;4.32;;;22.60;70.90;;;;;;5097922;28;20044;-73
2021/07/25 12:22:11;;;;;;;5.00;4.50;;;22.60;70.90;;;;;;5098222;28;20115;-73
2021/07/25 12:24:40;;;;;;;4.85;4.43;;;22.60;70.90;;;;;;5098109;28;20104;-73
2021/07/25 12:27:24;;;;;;;5.35;4.80;;;22.60;70.80;;;;;;5097764;28;20047;-72
2021/07/25 12:29:49;;;;;;;;;;;22.70;70.90;;;;;;5097700;28;20101;-73
2021/07/25 12:32:19;;;;;;;4.88;4.47;;;22.60;70.70;;;;;;5096926;28;19916;-73
2021/07/25 12:34:45;;;;;;;5.60;4.95;;;22.60;70.90;;;;;;5097517;28;20040;-73
2021/07/25 12:37:23;;;;;;;4.90;4.38;;;22.70;70.90;;;;;;5097538;28;20343;-73
2021/07/25 12:40:22;;;;;;;5.18;4.68;;;22.60;70.70;;;;;;5097626;28;20040;-73
2021/07/25 12:42:49;;;;;;;5.68;5.18;;;22.70;70.80;;;;;;5096145;28;20091;-73
2021/07/25 12:45:30;;;;;;;4.97;4.47;;;22.70;70.80;;;;;;5097234;28;20439;-73
2021/07/25 12:48:21;;;;;;;5.28;4.78;;;22.70;70.70;;;;;;5097488;28;20043;-72
2021/07/25 12:51:19;;;;;;;5.03;4.55;;;22.70;70.70;;;;;;5097243;28;20040;-72
2021/07/25 12:53:51;;;;;;;4.97;4.20;;;22.70;70.80;;;;;;5097467;28;20040;-73
2021/07/25 12:56:23;;;;;;;5.80;5.17;;;22.70;70.70;;;;;;5096975;28;20055;-73
2021/07/25 12:58:52;;;;;;;4.82;4.30;;;22.70;70.70;;;;;;5079143;28;20083;-72